DLH117P EDLP-ENBO
Flight info
| Callsign | DLH117P |
|---|---|
| Flight time | N/A |
| Altitude | 35000 |
| Route | KOMIL DCT HMM M170 BASUM DCT ELSOB DCT ALASA M852 ALS P615 ARTOR/N0367F130 P615 NEDZA P601 VEXOM Z101 SOMUB DCT OLISO DCT VABOT DCT KUBUG DCT STM DCT BO601 DCT BALAK DCT UMBOT DCT ADREL DCT TAKUP |
| Aircraft | A320/M-SDE3FGHIRWY/LB1 |
Departure
| Time | 2026-04-27 18:59 |
|---|---|
| Airport | Paderborn Lippstadt Airport (EDLP) |
Arrival
| Time | N/A |
|---|---|
| Airport | Bodø Airport (ENBO) |
| Time | Latitude | Longitude | Altitude | Speed | Heading |
|---|---|---|---|---|---|
| 2026-04-27 18:18 | 51.61116 | 8.61931 | 731 ft | 0 kts | 147° |
| 2026-04-27 18:48 | 51.61131 | 8.61916 | 731 ft | 4 kts | 151° |
| 2026-04-27 18:48 | 51.61155 | 8.61900 | 729 ft | 4 kts | 175° |
| 2026-04-27 18:49 | 51.61176 | 8.61907 | 728 ft | 2 kts | 235° |
| 2026-04-27 18:49 | 51.61177 | 8.61910 | 728 ft | 0 kts | 237° |
| 2026-04-27 18:53 | 51.61169 | 8.61891 | 731 ft | 3 kts | 237° |
| 2026-04-27 18:53 | 51.61158 | 8.61862 | 730 ft | 4 kts | 237° |
| 2026-04-27 18:53 | 51.61139 | 8.61816 | 731 ft | 6 kts | 236° |
| 2026-04-27 18:54 | 51.61099 | 8.61719 | 731 ft | 11 kts | 236° |
| 2026-04-27 18:54 | 51.61061 | 8.61626 | 731 ft | 9 kts | 237° |
| 2026-04-27 18:54 | 51.61025 | 8.61538 | 731 ft | 10 kts | 237° |
| 2026-04-27 18:54 | 51.60989 | 8.61449 | 730 ft | 9 kts | 237° |
| 2026-04-27 18:55 | 51.60961 | 8.61357 | 731 ft | 9 kts | 262° |
| 2026-04-27 18:55 | 51.60974 | 8.61218 | 724 ft | 16 kts | 281° |
| 2026-04-27 18:55 | 51.60971 | 8.61050 | 720 ft | 15 kts | 245° |
| 2026-04-27 18:55 | 51.60918 | 8.60913 | 716 ft | 14 kts | 236° |
| 2026-04-27 18:56 | 51.60863 | 8.60783 | 716 ft | 14 kts | 236° |
| 2026-04-27 18:56 | 51.60811 | 8.60655 | 715 ft | 14 kts | 237° |
| 2026-04-27 18:56 | 51.60760 | 8.60513 | 715 ft | 17 kts | 251° |
| 2026-04-27 18:56 | 51.60801 | 8.60360 | 716 ft | 15 kts | 329° |
| 2026-04-27 18:57 | 51.60894 | 8.60378 | 718 ft | 15 kts | 47° |
| 2026-04-27 18:57 | 51.60928 | 8.60453 | 717 ft | 0 kts | 56° |
| 2026-04-27 18:58 | 51.60962 | 8.60534 | 718 ft | 36 kts | 56° |
| 2026-04-27 18:59 | 51.61244 | 8.61222 | 716 ft | 108 kts | 57° |
| 2026-04-27 18:59 | 51.61773 | 8.62484 | 718 ft | 161 kts | 54° |
| 2026-04-27 18:59 | 51.62379 | 8.64021 | 1330 ft | 162 kts | 57° |
| 2026-04-27 18:59 | 51.62990 | 8.65551 | 2087 ft | 166 kts | 58° |
| 2026-04-27 19:00 | 51.63667 | 8.67194 | 2541 ft | 187 kts | 58° |
| 2026-04-27 19:00 | 51.64432 | 8.69042 | 2984 ft | 208 kts | 58° |
| 2026-04-27 19:00 | 51.65302 | 8.71030 | 3486 ft | 228 kts | 49° |
| 2026-04-27 19:00 | 51.66690 | 8.72279 | 4199 ft | 242 kts | 11° |
| 2026-04-27 19:01 | 51.68416 | 8.71989 | 4864 ft | 260 kts | 343° |
| 2026-04-27 19:01 | 51.70114 | 8.70822 | 4981 ft | 267 kts | 328° |
| 2026-04-27 19:01 | 51.71360 | 8.68650 | 5009 ft | 268 kts | 297° |
| 2026-04-27 19:01 | 51.71919 | 8.65831 | 5013 ft | 269 kts | 279° |
| 2026-04-27 19:02 | 51.72274 | 8.62873 | 5113 ft | 268 kts | 282° |
| 2026-04-27 19:02 | 51.72697 | 8.59926 | 5204 ft | 270 kts | 284° |
| 2026-04-27 19:02 | 51.73150 | 8.56976 | 5329 ft | 275 kts | 284° |
| 2026-04-27 19:02 | 51.73615 | 8.53969 | 6215 ft | 274 kts | 284° |
| 2026-04-27 19:03 | 51.74074 | 8.50971 | 7114 ft | 275 kts | 284° |
| 2026-04-27 19:03 | 51.74532 | 8.47956 | 7954 ft | 277 kts | 283° |
| 2026-04-27 19:03 | 51.74990 | 8.44920 | 8780 ft | 280 kts | 283° |
| 2026-04-27 19:03 | 51.75292 | 8.42890 | 9334 ft | 281 kts | 283° |
| 2026-04-27 19:04 | 51.75903 | 8.38760 | 10401 ft | 286 kts | 282° |
| 2026-04-27 19:04 | 51.76381 | 8.35506 | 10652 ft | 309 kts | 283° |
| 2026-04-27 19:04 | 51.76895 | 8.32003 | 10834 ft | 332 kts | 282° |
| 2026-04-27 19:04 | 51.77444 | 8.28245 | 10980 ft | 355 kts | 283° |
| 2026-04-27 19:05 | 51.78018 | 8.24303 | 11440 ft | 364 kts | 282° |
| 2026-04-27 19:05 | 51.78599 | 8.20291 | 12082 ft | 369 kts | 282° |
| 2026-04-27 19:05 | 51.79188 | 8.16245 | 12786 ft | 371 kts | 282° |
| 2026-04-27 19:05 | 51.79772 | 8.12224 | 13452 ft | 374 kts | 282° |
| 2026-04-27 19:06 | 51.80377 | 8.08053 | 14110 ft | 378 kts | 283° |
| 2026-04-27 19:06 | 51.81285 | 8.04108 | 14669 ft | 382 kts | 298° |
| 2026-04-27 19:06 | 51.82928 | 8.00716 | 15252 ft | 387 kts | 316° |
| 2026-04-27 19:06 | 51.85192 | 7.98326 | 15819 ft | 393 kts | 335° |
| 2026-04-27 19:07 | 51.87857 | 7.97287 | 16391 ft | 400 kts | 355° |
| 2026-04-27 19:07 | 51.90637 | 7.97760 | 16942 ft | 407 kts | 14° |
| 2026-04-27 19:07 | 51.93232 | 7.99674 | 17483 ft | 414 kts | 27° |
| 2026-04-27 19:07 | 51.95741 | 8.01989 | 18023 ft | 416 kts | 27° |
| 2026-04-27 19:08 | 51.98265 | 8.04331 | 18546 ft | 419 kts | 27° |
| 2026-04-27 19:08 | 52.00803 | 8.06692 | 19006 ft | 422 kts | 27° |
| 2026-04-27 19:08 | 52.03358 | 8.09067 | 19439 ft | 425 kts | 27° |
| 2026-04-27 19:08 | 52.05937 | 8.11466 | 19907 ft | 427 kts | 27° |
| 2026-04-27 19:09 | 52.08528 | 8.13875 | 20334 ft | 430 kts | 27° |
| 2026-04-27 19:09 | 52.11136 | 8.16296 | 20757 ft | 433 kts | 27° |
| 2026-04-27 19:09 | 52.13762 | 8.18735 | 21189 ft | 436 kts | 27° |
| 2026-04-27 19:09 | 52.16400 | 8.21193 | 21609 ft | 439 kts | 27° |
| 2026-04-27 19:10 | 52.19056 | 8.23674 | 22017 ft | 441 kts | 27° |
| 2026-04-27 19:10 | 52.21726 | 8.26174 | 22414 ft | 444 kts | 27° |
| 2026-04-27 19:10 | 52.24416 | 8.28696 | 22820 ft | 447 kts | 27° |
| 2026-04-27 19:10 | 52.26202 | 8.30372 | 23095 ft | 448 kts | 27° |
| 2026-04-27 19:11 | 52.29828 | 8.33778 | 23635 ft | 451 kts | 27° |
| 2026-04-27 19:11 | 52.32560 | 8.36344 | 23991 ft | 454 kts | 27° |
| 2026-04-27 19:11 | 52.35307 | 8.38924 | 24206 ft | 456 kts | 27° |
| 2026-04-27 19:11 | 52.38057 | 8.41511 | 24259 ft | 456 kts | 27° |
| 2026-04-27 19:12 | 52.40808 | 8.44106 | 24261 ft | 456 kts | 27° |
| 2026-04-27 19:12 | 52.43557 | 8.46708 | 24260 ft | 456 kts | 27° |
| 2026-04-27 19:12 | 52.46301 | 8.49309 | 24274 ft | 455 kts | 28° |
| 2026-04-27 19:12 | 52.49036 | 8.51904 | 24263 ft | 453 kts | 28° |
| 2026-04-27 19:13 | 52.50845 | 8.53623 | 24263 ft | 452 kts | 28° |
| 2026-04-27 19:13 | 52.53568 | 8.56214 | 24264 ft | 452 kts | 28° |
| 2026-04-27 19:13 | 52.56288 | 8.58804 | 24269 ft | 452 kts | 28° |
| 2026-04-27 19:13 | 52.59017 | 8.61406 | 24269 ft | 452 kts | 28° |
| 2026-04-27 19:14 | 52.61737 | 8.64001 | 24318 ft | 454 kts | 28° |
| 2026-04-27 19:14 | 52.64473 | 8.66614 | 24653 ft | 456 kts | 27° |
| 2026-04-27 19:14 | 52.67224 | 8.69249 | 24961 ft | 458 kts | 27° |
| 2026-04-27 19:14 | 52.69985 | 8.71899 | 25219 ft | 460 kts | 27° |
| 2026-04-27 19:15 | 52.72751 | 8.74554 | 25265 ft | 460 kts | 27° |
| 2026-04-27 19:15 | 52.75521 | 8.77219 | 25273 ft | 460 kts | 27° |
| 2026-04-27 19:15 | 52.78295 | 8.79879 | 25272 ft | 460 kts | 27° |
| 2026-04-27 19:15 | 52.81090 | 8.82442 | 25273 ft | 460 kts | 26° |
| 2026-04-27 19:16 | 52.83914 | 8.84924 | 25278 ft | 460 kts | 25° |
| 2026-04-27 19:16 | 52.85793 | 8.86543 | 25275 ft | 459 kts | 25° |
| 2026-04-27 19:16 | 52.89585 | 8.89800 | 25275 ft | 459 kts | 25° |
| 2026-04-27 19:16 | 52.92386 | 8.92221 | 25283 ft | 460 kts | 25° |
| 2026-04-27 19:17 | 52.95253 | 8.94727 | 25272 ft | 460 kts | 25° |
| 2026-04-27 19:17 | 52.98037 | 8.97186 | 25274 ft | 460 kts | 26° |
| 2026-04-27 19:17 | 53.00856 | 8.99697 | 25273 ft | 460 kts | 26° |
| 2026-04-27 19:17 | 53.03671 | 9.02216 | 25280 ft | 460 kts | 26° |
| 2026-04-27 19:18 | 53.06488 | 9.04738 | 25274 ft | 460 kts | 26° |
| 2026-04-27 19:18 | 53.09305 | 9.07255 | 25276 ft | 460 kts | 26° |
| 2026-04-27 19:18 | 53.12124 | 9.09774 | 25276 ft | 460 kts | 26° |
| 2026-04-27 19:18 | 53.14945 | 9.12297 | 25284 ft | 460 kts | 26° |
| 2026-04-27 19:19 | 53.17765 | 9.14820 | 25279 ft | 460 kts | 26° |
| 2026-04-27 19:19 | 53.20588 | 9.17352 | 25284 ft | 460 kts | 26° |
| 2026-04-27 19:19 | 53.23405 | 9.19883 | 25282 ft | 460 kts | 26° |
| 2026-04-27 19:19 | 53.26259 | 9.22273 | 25283 ft | 457 kts | 18° |
| 2026-04-27 19:20 | 53.29314 | 9.23596 | 25283 ft | 452 kts | 5° |
| 2026-04-27 19:20 | 53.32429 | 9.24302 | 25282 ft | 452 kts | 5° |
| 2026-04-27 19:20 | 53.35554 | 9.24982 | 25303 ft | 453 kts | 5° |
| 2026-04-27 19:20 | 53.38698 | 9.25651 | 25623 ft | 455 kts | 5° |
| 2026-04-27 19:21 | 53.41861 | 9.26322 | 25907 ft | 458 kts | 4° |
| 2026-04-27 19:21 | 53.45026 | 9.26997 | 26198 ft | 460 kts | 4° |
| 2026-04-27 19:21 | 53.48207 | 9.27680 | 26486 ft | 462 kts | 4° |
| 2026-04-27 19:21 | 53.51361 | 9.28363 | 26769 ft | 464 kts | 4° |
| 2026-04-27 19:22 | 53.54567 | 9.29063 | 27089 ft | 465 kts | 4° |
| 2026-04-27 19:22 | 53.57770 | 9.29766 | 27507 ft | 463 kts | 4° |
| 2026-04-27 19:22 | 53.60959 | 9.30471 | 27916 ft | 463 kts | 4° |
| 2026-04-27 19:22 | 53.64152 | 9.31179 | 28339 ft | 462 kts | 4° |
| 2026-04-27 19:23 | 53.67334 | 9.31880 | 28744 ft | 461 kts | 4° |
| 2026-04-27 19:23 | 53.70515 | 9.32578 | 29158 ft | 460 kts | 4° |
| 2026-04-27 19:23 | 53.73687 | 9.33270 | 29563 ft | 460 kts | 4° |
| 2026-04-27 19:23 | 53.76868 | 9.33963 | 29977 ft | 459 kts | 4° |
| 2026-04-27 19:24 | 53.80033 | 9.34654 | 30393 ft | 458 kts | 4° |
| 2026-04-27 19:24 | 53.83189 | 9.35348 | 30728 ft | 457 kts | 4° |
| 2026-04-27 19:24 | 53.86344 | 9.36049 | 31071 ft | 457 kts | 4° |
| 2026-04-27 19:24 | 53.89492 | 9.36752 | 31422 ft | 456 kts | 4° |
| 2026-04-27 19:25 | 53.92638 | 9.37457 | 31779 ft | 455 kts | 4° |
| 2026-04-27 19:25 | 53.95773 | 9.38157 | 32124 ft | 454 kts | 4° |
| 2026-04-27 19:25 | 53.98900 | 9.38853 | 32480 ft | 453 kts | 4° |
| 2026-04-27 19:25 | 54.02020 | 9.39547 | 32830 ft | 452 kts | 4° |
| 2026-04-27 19:26 | 54.05136 | 9.40242 | 33173 ft | 451 kts | 3° |
| 2026-04-27 19:26 | 54.08244 | 9.40931 | 33519 ft | 450 kts | 3° |
| 2026-04-27 19:26 | 54.11347 | 9.41619 | 33859 ft | 449 kts | 3° |
| 2026-04-27 19:26 | 54.14408 | 9.42298 | 34213 ft | 448 kts | 4° |
| 2026-04-27 19:27 | 54.17498 | 9.42992 | 34521 ft | 447 kts | 4° |
| 2026-04-27 19:27 | 54.20590 | 9.43695 | 34791 ft | 447 kts | 4° |
| 2026-04-27 19:27 | 54.23674 | 9.44391 | 35052 ft | 446 kts | 4° |
| 2026-04-27 19:27 | 54.26755 | 9.45084 | 35248 ft | 447 kts | 4° |
| 2026-04-27 19:28 | 54.29854 | 9.45782 | 35300 ft | 450 kts | 4° |
| 2026-04-27 19:28 | 54.36070 | 9.47198 | 35301 ft | 451 kts | 4° |
| 2026-04-27 19:29 | 54.42292 | 9.48632 | 35300 ft | 450 kts | 4° |
| 2026-04-27 19:29 | 54.48502 | 9.50048 | 35301 ft | 450 kts | 4° |
| 2026-04-27 19:30 | 54.54716 | 9.51459 | 35298 ft | 450 kts | 4° |
| 2026-04-27 19:30 | 54.60922 | 9.52875 | 35305 ft | 450 kts | 4° |
| 2026-04-27 19:31 | 54.67132 | 9.54298 | 35325 ft | 450 kts | 5° |
| 2026-04-27 19:31 | 54.73330 | 9.55729 | 35339 ft | 449 kts | 5° |
| 2026-04-27 19:32 | 54.79500 | 9.57154 | 35343 ft | 449 kts | 5° |
| 2026-04-27 19:32 | 54.85690 | 9.58597 | 35354 ft | 449 kts | 5° |
| 2026-04-27 19:33 | 54.91877 | 9.60050 | 35358 ft | 449 kts | 5° |
| 2026-04-27 19:33 | 54.98075 | 9.61495 | 35351 ft | 449 kts | 5° |
| 2026-04-27 19:34 | 55.04272 | 9.62944 | 35350 ft | 449 kts | 5° |
| 2026-04-27 19:34 | 55.10464 | 9.64389 | 35347 ft | 449 kts | 5° |
| 2026-04-27 19:35 | 55.16619 | 9.65844 | 35354 ft | 449 kts | 5° |
| 2026-04-27 19:35 | 55.22857 | 9.67318 | 35354 ft | 449 kts | 5° |
| 2026-04-27 19:36 | 55.29012 | 9.68772 | 35353 ft | 449 kts | 5° |
| 2026-04-27 19:36 | 55.35207 | 9.70248 | 35355 ft | 449 kts | 6° |
| 2026-04-27 19:37 | 55.41402 | 9.71732 | 35363 ft | 449 kts | 6° |
| 2026-04-27 19:37 | 55.47599 | 9.73218 | 35362 ft | 449 kts | 6° |
| 2026-04-27 19:38 | 55.53781 | 9.74707 | 35358 ft | 448 kts | 6° |
| 2026-04-27 19:38 | 55.59963 | 9.76195 | 35354 ft | 448 kts | 6° |
| 2026-04-27 19:39 | 55.66147 | 9.77677 | 35358 ft | 448 kts | 6° |
| 2026-04-27 19:39 | 55.72336 | 9.79167 | 35362 ft | 449 kts | 6° |
| 2026-04-27 19:40 | 55.78522 | 9.80676 | 35368 ft | 449 kts | 6° |
| 2026-04-27 19:40 | 55.84720 | 9.82201 | 35369 ft | 449 kts | 6° |
| 2026-04-27 19:41 | 55.90921 | 9.83727 | 35377 ft | 449 kts | 6° |
| 2026-04-27 19:41 | 55.97114 | 9.85254 | 35382 ft | 449 kts | 6° |
| 2026-04-27 19:42 | 56.03296 | 9.86770 | 35384 ft | 448 kts | 6° |
| 2026-04-27 19:42 | 56.09478 | 9.88291 | 35383 ft | 448 kts | 6° |
| 2026-04-27 19:43 | 56.15650 | 9.89832 | 35382 ft | 448 kts | 6° |
| 2026-04-27 19:43 | 56.21146 | 9.91198 | 35393 ft | 447 kts | 6° |
| 2026-04-27 19:44 | 56.27270 | 9.92731 | 35394 ft | 447 kts | 6° |
| 2026-04-27 19:44 | 56.33426 | 9.94265 | 35395 ft | 446 kts | 6° |
| 2026-04-27 19:45 | 56.39578 | 9.95802 | 35398 ft | 446 kts | 6° |
| 2026-04-27 19:45 | 56.45734 | 9.97343 | 35400 ft | 445 kts | 6° |
| 2026-04-27 19:46 | 56.51863 | 9.98895 | 35408 ft | 444 kts | 6° |
| 2026-04-27 19:46 | 56.58006 | 9.99504 | 35411 ft | 442 kts | 359° |
| 2026-04-27 19:47 | 56.64145 | 9.99511 | 35406 ft | 441 kts | 359° |
| 2026-04-27 19:47 | 56.70282 | 9.99504 | 35403 ft | 441 kts | 359° |
| 2026-04-27 19:48 | 56.76414 | 9.99520 | 35413 ft | 440 kts | 359° |
| 2026-04-27 19:48 | 56.82533 | 9.99542 | 35409 ft | 439 kts | 359° |
| 2026-04-27 19:49 | 56.88642 | 9.99547 | 35399 ft | 439 kts | 359° |
| 2026-04-27 19:49 | 56.94750 | 9.99546 | 35395 ft | 439 kts | 359° |
| 2026-04-27 19:50 | 57.00857 | 9.99544 | 35391 ft | 439 kts | 360° |
| 2026-04-27 19:50 | 57.06961 | 9.99544 | 35393 ft | 438 kts | 360° |
| 2026-04-27 19:51 | 57.13055 | 9.99672 | 35391 ft | 438 kts | 2° |
| 2026-04-27 19:51 | 57.19142 | 10.00394 | 35393 ft | 438 kts | 4° |
| 2026-04-27 19:52 | 57.25219 | 10.01304 | 35399 ft | 438 kts | 4° |
| 2026-04-27 19:52 | 57.31299 | 10.02117 | 35410 ft | 437 kts | 4° |
| 2026-04-27 19:53 | 57.40386 | 10.03214 | 35415 ft | 436 kts | 4° |
| 2026-04-27 19:53 | 57.46431 | 10.03943 | 35414 ft | 435 kts | 4° |
| 2026-04-27 19:54 | 57.52474 | 10.04686 | 35415 ft | 435 kts | 4° |
| 2026-04-27 19:54 | 57.58469 | 10.05420 | 35419 ft | 434 kts | 4° |
| 2026-04-27 19:55 | 57.64487 | 10.06168 | 35415 ft | 433 kts | 4° |
| 2026-04-27 19:55 | 57.70502 | 10.06920 | 35413 ft | 432 kts | 4° |
| 2026-04-27 19:56 | 57.75491 | 10.07538 | 35408 ft | 432 kts | 4° |
| 2026-04-27 19:56 | 57.81523 | 10.08291 | 35418 ft | 431 kts | 3° |
| 2026-04-27 19:57 | 57.87462 | 10.09043 | 35424 ft | 429 kts | 3° |
| 2026-04-27 19:57 | 57.93426 | 10.09796 | 35422 ft | 428 kts | 3° |
| 2026-04-27 19:58 | 57.99369 | 10.10551 | 35423 ft | 427 kts | 3° |
| 2026-04-27 19:58 | 58.05308 | 10.11295 | 35416 ft | 427 kts | 3° |
| 2026-04-27 19:59 | 58.11226 | 10.12054 | 35418 ft | 423 kts | 3° |
| 2026-04-27 19:59 | 58.17035 | 10.12872 | 35371 ft | 414 kts | 3° |
| 2026-04-27 20:00 | 58.22708 | 10.13634 | 35406 ft | 403 kts | 2° |
| 2026-04-27 20:00 | 58.28250 | 10.14348 | 35406 ft | 395 kts | 2° |
| 2026-04-27 20:01 | 58.33675 | 10.15047 | 35402 ft | 386 kts | 2° |
| 2026-04-27 20:01 | 58.38953 | 10.15726 | 35399 ft | 379 kts | 2° |
| 2026-04-27 20:02 | 58.44157 | 10.16395 | 35400 ft | 371 kts | 2° |
| 2026-04-27 20:02 | 58.49250 | 10.17059 | 35399 ft | 363 kts | 2° |
| 2026-04-27 20:03 | 58.54247 | 10.17712 | 35402 ft | 356 kts | 2° |
| 2026-04-27 20:03 | 58.59140 | 10.18350 | 35398 ft | 349 kts | 2° |
| 2026-04-27 20:04 | 58.63942 | 10.18978 | 35405 ft | 342 kts | 1° |
| 2026-04-27 20:04 | 58.68649 | 10.19591 | 35398 ft | 336 kts | 2° |
| 2026-04-27 20:05 | 58.73260 | 10.20209 | 35398 ft | 329 kts | 2° |
| 2026-04-27 20:05 | 58.77773 | 10.20805 | 35395 ft | 321 kts | 1° |
| 2026-04-27 20:06 | 58.82186 | 10.21374 | 35398 ft | 314 kts | 1° |
| 2026-04-27 20:06 | 58.86497 | 10.21926 | 35398 ft | 306 kts | 1° |
| 2026-04-27 20:07 | 58.90692 | 10.22479 | 35398 ft | 298 kts | 1° |
| 2026-04-27 20:07 | 58.92744 | 10.22762 | 35399 ft | 294 kts | 1° |
| 2026-04-27 20:07 | 58.94782 | 10.23082 | 35294 ft | 294 kts | 2° |
| 2026-04-27 20:08 | 58.96825 | 10.23444 | 35085 ft | 296 kts | 2° |
| 2026-04-27 20:08 | 58.98880 | 10.23848 | 34967 ft | 297 kts | 3° |
| 2026-04-27 20:08 | 59.00923 | 10.24293 | 34936 ft | 294 kts | 4° |
| 2026-04-27 20:08 | 59.02938 | 10.24778 | 34895 ft | 291 kts | 4° |
| 2026-04-27 20:09 | 59.04948 | 10.25307 | 34761 ft | 292 kts | 5° |
| 2026-04-27 20:09 | 59.06972 | 10.25883 | 34591 ft | 294 kts | 5° |
| 2026-04-27 20:09 | 59.08991 | 10.26503 | 34513 ft | 293 kts | 6° |
| 2026-04-27 20:09 | 59.10992 | 10.27165 | 34491 ft | 290 kts | 6° |
| 2026-04-27 20:10 | 59.12944 | 10.27858 | 34410 ft | 289 kts | 7° |
| 2026-04-27 20:10 | 59.14924 | 10.28606 | 34305 ft | 294 kts | 7° |
| 2026-04-27 20:10 | 59.16959 | 10.29334 | 34367 ft | 299 kts | 6° |
| 2026-04-27 20:10 | 59.18993 | 10.30006 | 34716 ft | 293 kts | 5° |
| 2026-04-27 20:11 | 59.20980 | 10.30617 | 35142 ft | 286 kts | 4° |
| 2026-04-27 20:11 | 59.22943 | 10.31174 | 35325 ft | 287 kts | 3° |
| 2026-04-27 20:11 | 59.24924 | 10.31679 | 35279 ft | 295 kts | 2° |
| 2026-04-27 20:11 | 59.26991 | 10.32144 | 35327 ft | 300 kts | 2° |
| 2026-04-27 20:12 | 59.29067 | 10.32553 | 35467 ft | 303 kts | 1° |
| 2026-04-27 20:12 | 59.31229 | 10.32890 | 35162 ft | 320 kts | 0° |
| 2026-04-27 20:12 | 59.33468 | 10.33543 | 35143 ft | 331 kts | 18° |
| 2026-04-27 20:12 | 59.35540 | 10.35642 | 35287 ft | 340 kts | 27° |
| 2026-04-27 20:13 | 59.39668 | 10.40659 | 35325 ft | 357 kts | 27° |
| 2026-04-27 20:13 | 59.44071 | 10.45575 | 35322 ft | 369 kts | 20° |
| 2026-04-27 20:14 | 59.48923 | 10.49185 | 35324 ft | 382 kts | 14° |
| 2026-04-27 20:14 | 59.54078 | 10.52507 | 35317 ft | 397 kts | 14° |
| 2026-04-27 20:15 | 59.59433 | 10.56164 | 35321 ft | 412 kts | 16° |
| 2026-04-27 20:15 | 59.64846 | 10.60109 | 35318 ft | 419 kts | 17° |
| 2026-04-27 20:16 | 59.70315 | 10.64162 | 35312 ft | 420 kts | 16° |
| 2026-04-27 20:16 | 59.75790 | 10.68171 | 35319 ft | 418 kts | 15° |
| 2026-04-27 20:17 | 59.81400 | 10.70511 | 35328 ft | 411 kts | 3° |
| 2026-04-27 20:17 | 59.86157 | 10.71595 | 35318 ft | 411 kts | 4° |
| 2026-04-27 20:18 | 59.92766 | 10.73128 | 35319 ft | 410 kts | 4° |
| 2026-04-27 20:18 | 59.98436 | 10.74463 | 35322 ft | 410 kts | 4° |
| 2026-04-27 20:19 | 60.04106 | 10.75792 | 35332 ft | 410 kts | 4° |
| 2026-04-27 20:19 | 60.09756 | 10.77114 | 35325 ft | 408 kts | 4° |
| 2026-04-27 20:20 | 60.15395 | 10.78443 | 35325 ft | 408 kts | 4° |
| 2026-04-27 20:20 | 60.21042 | 10.79770 | 35326 ft | 408 kts | 4° |
| 2026-04-27 20:21 | 60.26644 | 10.81097 | 35326 ft | 408 kts | 4° |
| 2026-04-27 20:21 | 60.32283 | 10.82435 | 35341 ft | 407 kts | 4° |
| 2026-04-27 20:22 | 60.37877 | 10.84236 | 35329 ft | 409 kts | 10° |
| 2026-04-27 20:22 | 60.43390 | 10.87034 | 35331 ft | 409 kts | 10° |
| 2026-04-27 20:23 | 60.48922 | 10.89852 | 35332 ft | 409 kts | 10° |
| 2026-04-27 20:23 | 60.54433 | 10.92664 | 35340 ft | 409 kts | 10° |
| 2026-04-27 20:24 | 60.59956 | 10.95468 | 35367 ft | 408 kts | 10° |
| 2026-04-27 20:24 | 60.65425 | 10.98266 | 35347 ft | 406 kts | 11° |
| 2026-04-27 20:25 | 60.70913 | 11.01081 | 35347 ft | 406 kts | 11° |
| 2026-04-27 20:25 | 60.76390 | 11.03915 | 35347 ft | 406 kts | 11° |
| 2026-04-27 20:26 | 60.81900 | 11.06220 | 35355 ft | 402 kts | 1° |
| 2026-04-27 20:26 | 60.87457 | 11.05663 | 35355 ft | 400 kts | 353° |
| 2026-04-27 20:27 | 60.92985 | 11.04722 | 35352 ft | 397 kts | 354° |
| 2026-04-27 20:27 | 60.98490 | 11.03805 | 35358 ft | 396 kts | 354° |
| 2026-04-27 20:28 | 61.03990 | 11.02870 | 35361 ft | 396 kts | 354° |
| 2026-04-27 20:28 | 61.08557 | 11.02088 | 35363 ft | 396 kts | 354° |
| 2026-04-27 20:29 | 61.14980 | 11.00978 | 35374 ft | 396 kts | 354° |
| 2026-04-27 20:29 | 61.20477 | 11.00030 | 35369 ft | 396 kts | 354° |
| 2026-04-27 20:30 | 61.25974 | 10.99080 | 35378 ft | 396 kts | 354° |
| 2026-04-27 20:30 | 61.31472 | 10.98129 | 35379 ft | 396 kts | 354° |
| 2026-04-27 20:31 | 61.36969 | 10.97172 | 35383 ft | 396 kts | 354° |
| 2026-04-27 20:31 | 61.42466 | 10.96219 | 35379 ft | 396 kts | 354° |
| 2026-04-27 20:32 | 61.47961 | 10.95249 | 35383 ft | 396 kts | 354° |
| 2026-04-27 20:32 | 61.53450 | 10.94275 | 35382 ft | 396 kts | 354° |
| 2026-04-27 20:33 | 61.58936 | 10.93302 | 35384 ft | 395 kts | 354° |
| 2026-04-27 20:33 | 61.64392 | 10.92332 | 35388 ft | 395 kts | 354° |
| 2026-04-27 20:34 | 61.69876 | 10.91360 | 35386 ft | 395 kts | 354° |
| 2026-04-27 20:34 | 61.75358 | 10.90393 | 35390 ft | 395 kts | 354° |
| 2026-04-27 20:35 | 61.80880 | 10.89406 | 35408 ft | 395 kts | 354° |
| 2026-04-27 20:35 | 61.86337 | 10.88429 | 35398 ft | 393 kts | 354° |
| 2026-04-27 20:36 | 61.91751 | 10.87443 | 35398 ft | 393 kts | 354° |
| 2026-04-27 20:36 | 61.97212 | 10.86447 | 35398 ft | 393 kts | 354° |
| 2026-04-27 20:37 | 62.02668 | 10.85446 | 35404 ft | 393 kts | 354° |
| 2026-04-27 20:37 | 62.08114 | 10.84455 | 35400 ft | 392 kts | 354° |
| 2026-04-27 20:38 | 62.12634 | 10.83631 | 35401 ft | 392 kts | 354° |
| 2026-04-27 20:38 | 62.18063 | 10.82649 | 35400 ft | 392 kts | 356° |
| 2026-04-27 20:39 | 62.23470 | 10.84145 | 35406 ft | 397 kts | 14° |
| 2026-04-27 20:39 | 62.28660 | 10.88408 | 35407 ft | 400 kts | 17° |
| 2026-04-27 20:40 | 62.33844 | 10.92735 | 35409 ft | 400 kts | 17° |
| 2026-04-27 20:40 | 62.39033 | 10.97076 | 35409 ft | 400 kts | 17° |
| 2026-04-27 20:41 | 62.44208 | 11.01424 | 35411 ft | 399 kts | 17° |
| 2026-04-27 20:41 | 62.49383 | 11.05775 | 35412 ft | 399 kts | 17° |
| 2026-04-27 20:42 | 62.54550 | 11.10159 | 35443 ft | 400 kts | 17° |
| 2026-04-27 20:42 | 62.59725 | 11.14571 | 35414 ft | 400 kts | 17° |
| 2026-04-27 20:43 | 62.64901 | 11.18989 | 35414 ft | 400 kts | 17° |
| 2026-04-27 20:43 | 62.70076 | 11.23434 | 35424 ft | 400 kts | 17° |
| 2026-04-27 20:44 | 62.75255 | 11.27894 | 35373 ft | 400 kts | 17° |
| 2026-04-27 20:44 | 62.80438 | 11.32355 | 35387 ft | 400 kts | 17° |
| 2026-04-27 20:45 | 62.85596 | 11.36822 | 35402 ft | 400 kts | 17° |
| 2026-04-27 20:45 | 62.90773 | 11.41338 | 35416 ft | 401 kts | 17° |
| 2026-04-27 20:46 | 62.95948 | 11.45873 | 35428 ft | 400 kts | 17° |
| 2026-04-27 20:46 | 62.96820 | 11.46635 | 35428 ft | 400 kts | 17° |